createdAt,value
2018-07-06T00:00:05.238Z,70.09
2018-07-06T00:02:52.402Z,69.94
2018-07-06T00:05:39.087Z,69.97
2018-07-06T00:08:26.230Z,70.45
2018-07-06T00:11:12.828Z,70.69
2018-07-06T00:13:59.975Z,70.56
2018-07-06T00:16:46.815Z,71.52
2018-07-06T00:19:33.611Z,71.76
2018-07-06T00:22:20.017Z,71.50
2018-07-06T00:25:07.089Z,71.58
2018-07-06T00:27:54.007Z,70.96
2018-07-06T00:30:41.137Z,71.42
2018-07-06T00:33:27.726Z,72.28
2018-07-06T00:36:14.976Z,72.55
2018-07-06T00:39:01.977Z,73.12
2018-07-06T00:41:49.119Z,72.76
2018-07-06T00:44:35.753Z,72.99
2018-07-06T00:47:23.147Z,73.47
2018-07-06T00:50:09.602Z,72.52
2018-07-06T00:52:56.353Z,72.45
2018-07-06T00:55:43.151Z,72.38
2018-07-06T00:58:30.192Z,73.36
2018-07-06T01:01:16.882Z,73.73
2018-07-06T01:04:04.152Z,73.63
2018-07-06T01:06:50.806Z,73.43
2018-07-06T01:09:37.946Z,73.37
2018-07-06T01:12:29.975Z,73.47
2018-07-06T01:15:37.632Z,72.74
2018-07-06T01:18:24.623Z,72.36
2018-07-06T01:21:11.814Z,72.43
2018-07-06T01:23:58.617Z,71.82
2018-07-06T01:26:45.657Z,72.12
2018-07-06T01:29:32.543Z,72.78
2018-07-06T01:32:19.687Z,72.65
2018-07-06T01:35:06.419Z,72.42
2018-07-06T01:37:53.715Z,72.64
2018-07-06T01:40:40.669Z,71.99
2018-07-06T01:43:27.899Z,72.62
2018-07-06T01:46:14.949Z,73.98
2018-07-06T01:49:02.398Z,74.51
2018-07-06T01:51:48.731Z,74.78
2018-07-06T01:54:35.814Z,74.27
2018-07-06T01:57:22.591Z,74.08
2018-07-06T02:00:09.722Z,74.70
2018-07-06T02:02:56.543Z,74.75
2018-07-06T02:05:43.563Z,74.74
2018-07-06T02:08:30.375Z,74.51
2018-07-06T02:11:17.906Z,74.24
2018-07-06T02:14:04.781Z,74.75
2018-07-06T02:16:52.050Z,75.13
2018-07-06T02:19:38.543Z,75.10
2018-07-06T02:22:25.141Z,74.68
2018-07-06T02:25:12.165Z,74.32
2018-07-06T02:27:59.505Z,74.04
2018-07-06T02:30:46.197Z,75.07
2018-07-06T02:33:33.240Z,75.04
2018-07-06T02:36:20.123Z,74.88
2018-07-06T02:39:07.495Z,74.65
2018-07-06T02:41:54.151Z,74.70
2018-07-06T02:44:41.002Z,74.64
2018-07-06T02:47:28.081Z,75.12
2018-07-06T02:50:14.868Z,75.46
2018-07-06T02:53:01.655Z,74.39
2018-07-06T02:55:48.600Z,74.67
2018-07-06T02:58:35.435Z,76.01
2018-07-06T03:01:22.585Z,75.81
2018-07-06T03:04:09.268Z,75.30
2018-07-06T03:06:56.724Z,75.16
2018-07-06T03:09:43.512Z,74.77
2018-07-06T03:12:30.349Z,74.91
2018-07-06T03:15:17.268Z,74.33
2018-07-06T03:18:03.938Z,74.08
2018-07-06T03:20:50.750Z,74.23
2018-07-06T03:23:37.785Z,74.46
2018-07-06T03:26:24.676Z,74.48
2018-07-06T03:29:11.895Z,74.14
2018-07-06T03:31:58.622Z,73.94
2018-07-06T03:34:45.671Z,74.40
2018-07-06T03:37:32.395Z,73.90
2018-07-06T03:40:19.793Z,74.12
2018-07-06T03:43:06.317Z,74.23
2018-07-06T03:45:52.667Z,74.05
2018-07-06T03:48:39.200Z,73.42
2018-07-06T03:51:26.219Z,73.04
2018-07-06T03:54:13.157Z,73.37
2018-07-06T03:56:59.960Z,73.72
2018-07-06T03:59:46.786Z,73.09
2018-07-06T04:02:33.453Z,73.08
2018-07-06T04:05:20.151Z,73.06
2018-07-06T04:08:07.199Z,73.12
2018-07-06T04:10:53.870Z,72.95
2018-07-06T04:13:40.700Z,72.32
2018-07-06T04:16:27.045Z,71.97
2018-07-06T04:19:13.731Z,71.38
2018-07-06T04:22:00.591Z,70.59
2018-07-06T04:24:47.854Z,69.99
2018-07-06T04:27:34.642Z,69.45
2018-07-06T04:30:21.891Z,69.04
2018-07-06T04:33:08.677Z,68.96
2018-07-06T04:35:55.807Z,68.84
2018-07-06T04:38:42.610Z,68.47
2018-07-06T04:41:29.942Z,68.68
2018-07-06T04:44:16.490Z,68.35
2018-07-06T04:47:03.299Z,68.13
2018-07-06T04:49:50.060Z,68.19
2018-07-06T04:52:36.907Z,67.78
2018-07-06T04:55:23.683Z,67.98
2018-07-06T04:58:10.526Z,67.67
2018-07-06T05:00:57.418Z,67.10
2018-07-06T05:03:44.544Z,66.83
2018-07-06T05:06:31.326Z,66.29
2018-07-06T05:09:18.480Z,66.35
2018-07-06T05:12:05.377Z,66.15
2018-07-06T05:14:51.919Z,65.74
2018-07-06T05:17:38.485Z,65.20
2018-07-06T05:20:25.297Z,65.06
2018-07-06T05:23:11.985Z,65.11
2018-07-06T05:25:59.251Z,64.49
2018-07-06T05:28:45.981Z,63.93
2018-07-06T05:31:33.079Z,63.65
2018-07-06T05:34:19.761Z,62.45
2018-07-06T05:37:06.687Z,62.58
2018-07-06T05:39:53.899Z,61.57
2018-07-06T05:42:40.813Z,62.31
2018-07-06T05:45:27.855Z,61.91
2018-07-06T05:48:14.542Z,61.32
2018-07-06T05:51:01.674Z,60.70
2018-07-06T05:53:48.702Z,59.95
2018-07-06T05:56:35.839Z,59.18
2018-07-06T05:59:22.657Z,59.20
2018-07-06T06:02:09.822Z,59.64
2018-07-06T06:04:56.648Z,58.78
2018-07-06T06:07:31.299Z,58.47
2018-07-06T06:10:01.176Z,58.40
2018-07-06T06:12:31.479Z,57.03
2018-07-06T06:15:01.131Z,55.93
2018-07-06T06:17:31.331Z,56.36
2018-07-06T06:20:01.246Z,56.23
2018-07-06T06:22:31.007Z,56.44
2018-07-06T06:25:00.786Z,56.29
2018-07-06T06:27:30.796Z,56.08
2018-07-06T06:30:00.717Z,54.48
2018-07-06T06:32:30.937Z,55.11
2018-07-06T06:35:01.027Z,54.12
2018-07-06T06:37:31.301Z,54.12
2018-07-06T06:40:00.987Z,54.62
2018-07-06T06:42:30.815Z,53.79
2018-07-06T06:45:00.556Z,52.84
2018-07-06T06:47:30.870Z,53.30
2018-07-06T06:50:01.059Z,52.84
2018-07-06T06:52:30.703Z,52.67
2018-07-06T06:55:01.021Z,52.09
2018-07-06T06:57:30.905Z,52.34
2018-07-06T07:00:00.938Z,52.49
2018-07-06T07:02:31.095Z,51.73
2018-07-06T07:05:01.523Z,51.74
2018-07-06T07:07:31.982Z,52.20
2018-07-06T07:10:01.567Z,51.62
2018-07-06T07:12:31.682Z,52.47
2018-07-06T07:15:01.510Z,51.24
2018-07-06T07:17:31.360Z,49.42
2018-07-06T07:20:01.691Z,50.80
2018-07-06T07:22:31.488Z,50.12
2018-07-06T07:25:01.386Z,49.81
2018-07-06T07:27:31.516Z,48.99
2018-07-06T07:30:01.548Z,50.00
2018-07-06T07:32:31.359Z,47.98
2018-07-06T07:35:01.286Z,49.10
2018-07-06T07:37:31.052Z,49.43
2018-07-06T07:40:00.990Z,46.34
2018-07-06T07:42:30.794Z,46.46
2018-07-06T07:45:00.828Z,46.05
2018-07-06T07:47:30.947Z,46.57
2018-07-06T07:50:00.991Z,46.12
2018-07-06T07:52:41.595Z,46.35
2018-07-06T07:55:12.117Z,46.06
2018-07-06T07:57:41.948Z,45.22
2018-07-06T08:00:11.592Z,44.61
2018-07-06T08:02:41.745Z,44.25
2018-07-06T08:05:11.551Z,43.11
2018-07-06T08:07:41.736Z,43.82
2018-07-06T08:10:11.403Z,42.33
2018-07-06T08:12:41.123Z,40.07
2018-07-06T08:15:11.317Z,40.43
2018-07-06T08:17:40.915Z,43.15
2018-07-06T08:20:10.976Z,40.17
2018-07-06T08:22:40.936Z,40.69
2018-07-06T08:25:10.789Z,42.78
2018-07-06T08:27:40.474Z,42.74
2018-07-06T08:30:10.458Z,43.15
2018-07-06T08:32:40.272Z,42.83
2018-07-06T08:35:21.073Z,43.10
2018-07-06T08:38:05.610Z,43.29
2018-07-06T08:40:35.289Z,42.91
2018-07-06T08:43:05.998Z,43.25
2018-07-06T08:45:36.297Z,42.64
2018-07-06T08:48:06.359Z,41.84
2018-07-06T08:50:36.091Z,41.97
2018-07-06T08:53:06.451Z,42.60
2018-07-06T08:55:36.374Z,41.30
2018-07-06T08:58:06.525Z,40.36
2018-07-06T09:00:36.409Z,41.06
2018-07-06T09:03:06.663Z,40.20
2018-07-06T09:05:36.390Z,39.26
2018-07-06T09:08:06.003Z,39.65
2018-07-06T09:10:35.935Z,39.44
2018-07-06T09:13:06.075Z,39.74
2018-07-06T09:15:36.435Z,39.52
2018-07-06T09:18:06.175Z,39.24
2018-07-06T09:20:36.146Z,39.14
2018-07-06T09:23:06.287Z,38.80
2018-07-06T09:25:36.228Z,39.06
2018-07-06T09:28:05.975Z,40.00
2018-07-06T09:30:35.832Z,39.27
2018-07-06T09:33:06.237Z,39.07
2018-07-06T09:35:35.846Z,38.71
2018-07-06T09:38:05.513Z,37.93
2018-07-06T09:40:35.389Z,38.21
2018-07-06T09:43:05.292Z,36.47
2018-07-06T09:45:35.280Z,36.41
2018-07-06T09:48:05.012Z,37.61
2018-07-06T09:50:35.345Z,37.29
2018-07-06T09:53:05.354Z,36.55
2018-07-06T09:55:35.535Z,35.61
2018-07-06T09:58:05.463Z,34.66
2018-07-06T10:00:40.069Z,34.55
2018-07-06T10:03:09.991Z,34.30
2018-07-06T10:05:39.623Z,35.24
2018-07-06T10:08:09.199Z,34.92
2018-07-06T10:10:39.387Z,34.66
2018-07-06T10:13:09.343Z,33.13
2018-07-06T10:15:40.032Z,34.11
2018-07-06T10:18:10.359Z,32.96
2018-07-06T10:20:40.162Z,32.64
2018-07-06T10:23:09.895Z,34.22
2018-07-06T10:25:39.912Z,31.68
2018-07-06T10:29:21.591Z,31.15
2018-07-06T10:32:03.901Z,32.63
2018-07-06T10:34:33.777Z,31.28
2018-07-06T10:37:03.386Z,31.56
2018-07-06T10:39:32.976Z,32.03
2018-07-06T10:42:03.285Z,32.39
2018-07-06T10:44:33.217Z,31.93
2018-07-06T10:47:02.823Z,30.94
2018-07-06T10:49:33.209Z,32.42
2018-07-06T10:52:03.526Z,32.10
2018-07-06T10:54:33.658Z,31.88
2018-07-06T10:57:03.570Z,31.42
2018-07-06T10:59:33.703Z,32.30
2018-07-06T11:02:03.504Z,32.01
2018-07-06T11:04:33.198Z,32.03
2018-07-06T11:07:03.098Z,32.88
2018-07-06T11:09:32.658Z,31.84
2018-07-06T11:12:02.522Z,31.58
2018-07-06T11:14:32.680Z,31.53
2018-07-06T11:17:02.587Z,31.61
2018-07-06T11:19:33.024Z,30.37
2018-07-06T11:22:03.040Z,30.59
2018-07-06T11:24:32.887Z,31.50
2018-07-06T11:27:02.652Z,30.30
2018-07-06T11:29:32.584Z,30.88
2018-07-06T11:32:02.921Z,29.10
2018-07-06T11:34:32.502Z,28.55
2018-07-06T11:37:02.109Z,27.23
2018-07-06T11:39:32.146Z,27.14
2018-07-06T11:42:01.749Z,26.72
2018-07-06T11:44:32.100Z,26.96
2018-07-06T11:47:02.159Z,25.19
2018-07-06T11:49:32.450Z,25.29
2018-07-06T11:52:02.525Z,24.29
2018-07-06T11:54:32.635Z,25.42
2018-07-06T11:57:02.462Z,24.44
2018-07-06T11:59:32.364Z,23.96
2018-07-06T12:02:02.203Z,23.65
2018-07-06T12:04:31.839Z,22.92
2018-07-06T12:07:01.303Z,21.70
2018-07-06T12:09:31.264Z,20.79
2018-07-06T12:12:01.136Z,20.92
2018-07-06T12:14:31.009Z,20.62
2018-07-06T12:17:01.405Z,20.29
2018-07-06T12:19:31.154Z,20.11
2018-07-06T12:22:00.943Z,20.56
2018-07-06T12:24:30.746Z,20.38
2018-07-06T12:27:00.684Z,20.78
2018-07-06T12:29:30.555Z,20.35
2018-07-06T12:32:00.128Z,20.08
2018-07-06T12:34:30.124Z,19.20
2018-07-06T12:36:59.727Z,17.41
2018-07-06T12:39:29.439Z,18.41
2018-07-06T12:41:59.504Z,19.95
2018-07-06T12:44:29.121Z,21.04
2018-07-06T12:46:59.251Z,21.86
2018-07-06T12:49:28.984Z,23.04
2018-07-06T12:51:58.947Z,24.08
2018-07-06T12:54:29.002Z,23.35
2018-07-06T12:56:58.847Z,22.55
2018-07-06T12:59:29.151Z,21.61
2018-07-06T13:01:58.682Z,22.30
2018-07-06T13:04:28.227Z,22.19
2018-07-06T13:06:57.876Z,23.85
2018-07-06T13:09:27.663Z,24.22
2018-07-06T13:11:57.219Z,25.69
2018-07-06T13:14:27.298Z,26.37
2018-07-06T13:16:57.470Z,26.21
2018-07-06T13:19:27.445Z,28.08
2018-07-06T13:21:57.961Z,27.70
2018-07-06T13:24:27.899Z,27.81
2018-07-06T13:26:58.317Z,28.86
2018-07-06T13:29:28.422Z,26.98
2018-07-06T13:31:58.115Z,27.71
2018-07-06T13:34:27.739Z,29.00
2018-07-06T13:36:57.288Z,26.58
2018-07-06T13:39:27.183Z,23.83
2018-07-06T13:41:57.567Z,24.69
2018-07-06T13:44:27.332Z,25.96
2018-07-06T13:46:57.119Z,25.99
2018-07-06T13:49:26.975Z,25.97
2018-07-06T13:51:56.745Z,27.04
2018-07-06T13:54:26.781Z,27.97
2018-07-06T13:56:56.662Z,27.40
2018-07-06T13:59:27.133Z,28.87
2018-07-06T14:01:56.808Z,28.82
2018-07-06T14:04:26.395Z,28.30
2018-07-06T14:06:57.496Z,28.95
2018-07-06T14:09:27.382Z,30.36
2018-07-06T14:11:57.555Z,30.79
2018-07-06T14:14:27.916Z,31.42
2018-07-06T14:16:57.871Z,32.35
2018-07-06T14:19:28.529Z,33.99
2018-07-06T14:21:59.431Z,34.50
2018-07-06T14:24:29.228Z,35.60
2018-07-06T14:26:59.447Z,34.88
2018-07-06T14:29:29.182Z,35.42
2018-07-06T14:31:58.870Z,34.33
2018-07-06T14:34:29.511Z,35.84
2018-07-06T14:36:59.418Z,37.37
2018-07-06T14:39:29.528Z,38.30
2018-07-06T14:41:59.776Z,38.77
2018-07-06T14:44:29.665Z,39.58
2018-07-06T14:46:59.625Z,41.19
2018-07-06T14:49:29.718Z,41.40
2018-07-06T14:52:00.012Z,41.16
2018-07-06T14:54:30.138Z,41.30
2018-07-06T14:57:00.309Z,40.01
2018-07-06T14:59:29.941Z,38.78
2018-07-06T15:01:59.467Z,38.57
2018-07-06T15:04:29.743Z,36.31
2018-07-06T15:06:59.615Z,35.49
2018-07-06T15:09:29.760Z,35.07
2018-07-06T15:11:59.506Z,32.96
2018-07-06T15:14:29.429Z,31.34
2018-07-06T15:16:59.519Z,30.49
2018-07-06T15:19:29.312Z,28.76
2018-07-06T15:21:59.440Z,28.99
2018-07-06T15:24:29.228Z,28.08
2018-07-06T15:26:59.622Z,27.31
2018-07-06T15:29:29.212Z,27.04
2018-07-06T15:31:58.767Z,26.62
2018-07-06T15:34:28.656Z,27.36
2018-07-06T15:36:58.595Z,26.97
2018-07-06T15:39:28.934Z,27.80
2018-07-06T15:41:59.235Z,27.87
2018-07-06T15:44:29.268Z,27.92
2018-07-06T15:46:59.259Z,29.50
2018-07-06T15:49:29.110Z,27.95
2018-07-06T15:51:58.696Z,28.59
2018-07-06T15:54:28.540Z,28.82
2018-07-06T15:56:58.588Z,28.48
2018-07-06T15:59:28.216Z,27.81
2018-07-06T16:01:57.887Z,28.13
2018-07-06T16:04:27.897Z,28.74
2018-07-06T16:06:57.811Z,28.10
2018-07-06T16:09:27.684Z,28.21
2018-07-06T16:11:57.335Z,28.06
2018-07-06T16:14:27.256Z,28.51
2018-07-06T16:16:57.597Z,29.18
2018-07-06T16:19:27.296Z,28.97
2018-07-06T16:21:57.086Z,29.30
2018-07-06T16:24:26.859Z,29.68
2018-07-06T16:26:57.024Z,30.69
2018-07-06T16:29:26.858Z,30.92
2018-07-06T16:31:56.940Z,30.43
2018-07-06T16:34:26.770Z,30.37
2018-07-06T16:36:56.460Z,31.78
2018-07-06T16:39:26.083Z,31.22
2018-07-06T16:41:55.682Z,33.15
2018-07-06T16:44:25.754Z,32.63
2018-07-06T16:46:55.536Z,33.85
2018-07-06T16:49:25.152Z,33.49
2018-07-06T16:51:55.082Z,34.23
2018-07-06T16:54:25.003Z,34.76
2018-07-06T16:56:54.940Z,35.44
2018-07-06T16:59:24.750Z,35.79
2018-07-06T17:01:54.426Z,36.30
2018-07-06T17:04:24.237Z,37.00
2018-07-06T17:06:53.783Z,37.86
2018-07-06T17:09:23.367Z,38.66
2018-07-06T17:11:53.088Z,39.23
2018-07-06T17:14:22.921Z,39.27
2018-07-06T17:16:52.491Z,40.01
2018-07-06T17:19:22.263Z,39.96
2018-07-06T17:21:51.926Z,41.08
2018-07-06T17:24:21.596Z,40.77
2018-07-06T17:26:51.738Z,41.35
2018-07-06T17:29:21.524Z,42.93
2018-07-06T17:31:51.244Z,41.43
2018-07-06T17:34:21.186Z,42.53
2018-07-06T17:36:50.854Z,43.75
2018-07-06T17:39:20.513Z,43.63
2018-07-06T17:41:50.195Z,45.08
2018-07-06T17:44:20.553Z,45.60
2018-07-06T17:46:50.431Z,45.92
2018-07-06T17:49:20.252Z,45.50
2018-07-06T17:51:50.719Z,46.78
2018-07-06T17:54:20.491Z,47.05
2018-07-06T17:56:50.748Z,47.36
2018-07-06T17:59:20.395Z,46.82
2018-07-06T18:01:50.084Z,47.19
2018-07-06T18:04:20.079Z,47.72
2018-07-06T18:06:49.599Z,47.44
2018-07-06T18:09:19.159Z,49.16
2018-07-06T18:11:48.747Z,49.72
2018-07-06T18:14:18.673Z,50.04
2018-07-06T18:16:49.961Z,50.53
2018-07-06T18:19:19.863Z,51.03
2018-07-06T18:21:50.551Z,51.05
2018-07-06T18:24:20.411Z,51.87
2018-07-06T18:26:50.833Z,51.97
2018-07-06T18:29:20.654Z,52.76
2018-07-06T18:31:50.921Z,53.10
2018-07-06T18:34:20.902Z,53.31
2018-07-06T18:36:50.961Z,53.40
2018-07-06T18:39:20.898Z,53.93
2018-07-06T18:41:50.461Z,54.35
2018-07-06T18:44:20.391Z,54.74
2018-07-06T18:46:50.025Z,54.45
2018-07-06T18:49:20.410Z,54.19
2018-07-06T18:51:50.041Z,54.29
2018-07-06T18:54:20.120Z,54.50
2018-07-06T18:56:50.015Z,54.18
2018-07-06T18:59:20.146Z,54.08
2018-07-06T19:01:49.735Z,54.09
2018-07-06T19:04:19.683Z,56.67
2018-07-06T19:06:49.593Z,57.26
2018-07-06T19:09:19.990Z,58.83
2018-07-06T19:11:49.799Z,59.28
2018-07-06T19:14:20.000Z,60.19
2018-07-06T19:16:50.075Z,59.92
2018-07-06T19:19:19.830Z,59.67
2018-07-06T19:21:49.840Z,60.12
2018-07-06T19:24:19.773Z,61.04
2018-07-06T19:26:49.738Z,60.53
2018-07-06T19:29:19.644Z,61.41
2018-07-06T19:31:49.419Z,61.99
2018-07-06T19:34:19.621Z,61.69
2018-07-06T19:36:49.195Z,62.28
2018-07-06T19:39:18.903Z,62.51
2018-07-06T19:41:49.351Z,62.78
2018-07-06T19:44:19.347Z,62.88
2018-07-06T19:46:49.322Z,63.31
2018-07-06T19:49:19.403Z,63.68
2018-07-06T19:51:49.517Z,64.30
2018-07-06T19:54:19.652Z,63.52
2018-07-06T19:56:50.604Z,63.64
2018-07-06T19:59:20.847Z,64.22
2018-07-06T20:01:50.739Z,64.08
2018-07-06T20:04:20.355Z,64.39
2018-07-06T20:06:50.168Z,65.19
2018-07-06T20:09:19.663Z,64.57
2018-07-06T20:11:49.449Z,64.33
2018-07-06T20:14:19.211Z,64.02
2018-07-06T20:16:49.079Z,64.07
2018-07-06T20:19:19.368Z,64.08
2018-07-06T20:21:48.956Z,64.77
2018-07-06T20:24:18.720Z,64.88
2018-07-06T20:26:48.867Z,64.78
2018-07-06T20:29:18.777Z,64.83
2018-07-06T20:31:49.121Z,64.48
2018-07-06T20:34:18.715Z,64.64
2018-07-06T20:36:48.297Z,64.60
2018-07-06T20:39:18.215Z,64.72
2018-07-06T20:41:48.034Z,64.66
2018-07-06T20:44:17.639Z,64.25
2018-07-06T20:46:47.884Z,64.14
2018-07-06T20:49:17.922Z,63.89
2018-07-06T20:51:48.098Z,63.92
2018-07-06T20:54:18.431Z,63.80
2018-07-06T20:56:48.454Z,64.19
2018-07-06T20:59:18.669Z,64.18
2018-07-06T21:01:48.383Z,63.64
2018-07-06T21:04:18.330Z,63.75
2018-07-06T21:06:48.118Z,63.90
2018-07-06T21:09:17.755Z,64.69
2018-07-06T21:11:48.020Z,64.12
2018-07-06T21:14:17.649Z,63.83
2018-07-06T21:16:47.459Z,63.34
2018-07-06T21:19:17.458Z,63.89
2018-07-06T21:21:47.186Z,64.05
2018-07-06T21:24:17.568Z,63.18
2018-07-06T21:26:47.231Z,62.92
2018-07-06T21:29:17.043Z,62.88
2018-07-06T21:31:47.092Z,63.46
2018-07-06T21:34:17.126Z,63.23
2018-07-06T21:36:46.689Z,63.72
2018-07-06T21:39:16.566Z,63.95
2018-07-06T21:41:46.212Z,63.44
2018-07-06T21:44:16.226Z,63.62
2018-07-06T21:46:46.173Z,62.88
2018-07-06T21:49:16.346Z,62.75
2018-07-06T21:51:46.894Z,62.29
2018-07-06T21:54:16.724Z,62.19
2018-07-06T21:56:46.841Z,62.45
2018-07-06T21:59:16.651Z,62.22
2018-07-06T22:01:47.186Z,63.05
2018-07-06T22:04:16.931Z,62.38
2018-07-06T22:06:46.607Z,63.13
2018-07-06T22:09:16.925Z,63.46
2018-07-06T22:11:47.383Z,64.31
2018-07-06T22:14:17.622Z,63.75
2018-07-06T22:16:48.715Z,63.80
2018-07-06T22:19:18.956Z,63.51
2018-07-06T22:21:49.205Z,63.04
2018-07-06T22:24:19.291Z,66.06
2018-07-06T22:26:48.935Z,65.13
2018-07-06T22:29:19.026Z,65.15
2018-07-06T22:31:49.618Z,65.13
2018-07-06T22:34:19.634Z,65.29
2018-07-06T22:36:49.273Z,65.80
2018-07-06T22:39:19.136Z,66.03
2018-07-06T22:41:50.017Z,65.94
2018-07-06T22:44:19.974Z,65.26
2018-07-06T22:46:49.752Z,65.25
2018-07-06T22:49:20.051Z,64.87
2018-07-06T22:51:49.684Z,64.27
2018-07-06T22:54:19.337Z,64.31
2018-07-06T22:56:49.298Z,64.86
2018-07-06T22:59:19.107Z,64.60
2018-07-06T23:01:49.956Z,64.26
2018-07-06T23:04:19.530Z,64.22
2018-07-06T23:06:49.110Z,64.84
2018-07-06T23:09:18.739Z,65.05
2018-07-06T23:11:48.503Z,64.73
2018-07-06T23:14:18.938Z,64.74
2018-07-06T23:16:49.552Z,64.76
2018-07-06T23:19:19.889Z,64.55
2018-07-06T23:21:50.004Z,64.82
2018-07-06T23:24:20.329Z,65.23
2018-07-06T23:26:50.346Z,65.54
2018-07-06T23:29:20.244Z,65.45
2018-07-06T23:31:49.935Z,66.23
2018-07-06T23:34:19.570Z,66.70
2018-07-06T23:36:49.224Z,67.03
2018-07-06T23:39:19.346Z,67.75
2018-07-06T23:41:49.484Z,67.83
2018-07-06T23:44:19.698Z,68.00
2018-07-06T23:46:50.094Z,68.85
2018-07-06T23:49:20.336Z,68.27
2018-07-06T23:51:50.235Z,69.48
2018-07-06T23:54:20.467Z,70.06
2018-07-06T23:56:50.259Z,70.56
2018-07-06T23:59:20.630Z,71.07
